sensor_id;sensor_type;location;lat;lon;timestamp;P1;durP1;ratioP1;P2;durP2;ratioP2
78612;SDS011;67933;51.060;3.638;2023-04-01T00:01:09;11.88;;;5.75;;
78612;SDS011;67933;51.060;3.638;2023-04-01T00:03:36;11.95;;;5.40;;
78612;SDS011;67933;51.060;3.638;2023-04-01T00:06:02;13.15;;;5.70;;
78612;SDS011;67933;51.060;3.638;2023-04-01T00:08:28;18.08;;;6.47;;
78612;SDS011;67933;51.060;3.638;2023-04-01T00:10:54;16.95;;;5.90;;
78612;SDS011;67933;51.060;3.638;2023-04-01T00:13:20;21.17;;;8.05;;
78612;SDS011;67933;51.060;3.638;2023-04-01T00:15:46;12.20;;;5.50;;
78612;SDS011;67933;51.060;3.638;2023-04-01T00:18:12;18.17;;;6.47;;
78612;SDS011;67933;51.060;3.638;2023-04-01T00:20:38;11.68;;;5.57;;
78612;SDS011;67933;51.060;3.638;2023-04-01T00:23:07;15.85;;;4.95;;
78612;SDS011;67933;51.060;3.638;2023-04-01T00:25:32;13.18;;;4.63;;
78612;SDS011;67933;51.060;3.638;2023-04-01T00:27:58;8.30;;;4.03;;
78612;SDS011;67933;51.060;3.638;2023-04-01T00:30:23;11.63;;;4.13;;
78612;SDS011;67933;51.060;3.638;2023-04-01T00:32:52;7.03;;;4.43;;
78612;SDS011;67933;51.060;3.638;2023-04-01T00:35:18;10.95;;;3.50;;
78612;SDS011;67933;51.060;3.638;2023-04-01T00:37:44;9.60;;;3.40;;
78612;SDS011;67933;51.060;3.638;2023-04-01T00:40:20;12.40;;;4.10;;
78612;SDS011;67933;51.060;3.638;2023-04-01T00:42:53;10.73;;;3.58;;
78612;SDS011;67933;51.060;3.638;2023-04-01T00:45:37;8.30;;;3.85;;
78612;SDS011;67933;51.060;3.638;2023-04-01T00:48:15;11.80;;;4.15;;
78612;SDS011;67933;51.060;3.638;2023-04-01T00:50:44;9.27;;;3.10;;
78612;SDS011;67933;51.060;3.638;2023-04-01T00:53:14;8.93;;;3.30;;
78612;SDS011;67933;51.060;3.638;2023-04-01T00:55:44;6.80;;;3.65;;
78612;SDS011;67933;51.060;3.638;2023-04-01T00:58:15;8.80;;;3.42;;
78612;SDS011;67933;51.060;3.638;2023-04-01T01:00:45;8.48;;;3.50;;
78612;SDS011;67933;51.060;3.638;2023-04-01T01:03:13;8.68;;;3.28;;
78612;SDS011;67933;51.060;3.638;2023-04-01T01:05:46;10.40;;;3.15;;
78612;SDS011;67933;51.060;3.638;2023-04-01T01:08:47;11.02;;;4.30;;
78612;SDS011;67933;51.060;3.638;2023-04-01T01:17:48;9.70;;;3.65;;
78612;SDS011;67933;51.060;3.638;2023-04-01T01:35:47;10.43;;;4.23;;
78612;SDS011;67933;51.060;3.638;2023-04-01T01:38:17;8.93;;;4.07;;
78612;SDS011;67933;51.060;3.638;2023-04-01T01:40:47;16.33;;;4.28;;
78612;SDS011;67933;51.060;3.638;2023-04-01T01:43:19;16.38;;;4.65;;
78612;SDS011;67933;51.060;3.638;2023-04-01T01:45:50;10.57;;;4.68;;
78612;SDS011;67933;51.060;3.638;2023-04-01T01:48:23;10.82;;;3.83;;
78612;SDS011;67933;51.060;3.638;2023-04-01T01:50:51;14.52;;;5.10;;
78612;SDS011;67933;51.060;3.638;2023-04-01T01:53:17;9.75;;;3.78;;
78612;SDS011;67933;51.060;3.638;2023-04-01T01:55:44;12.40;;;3.58;;
78612;SDS011;67933;51.060;3.638;2023-04-01T01:58:17;11.60;;;4.03;;
78612;SDS011;67933;51.060;3.638;2023-04-01T02:00:50;10.10;;;3.60;;
78612;SDS011;67933;51.060;3.638;2023-04-01T02:03:20;8.70;;;4.65;;
78612;SDS011;67933;51.060;3.638;2023-04-01T02:05:48;8.63;;;4.40;;
78612;SDS011;67933;51.060;3.638;2023-04-01T02:08:18;10.10;;;3.92;;
78612;SDS011;67933;51.060;3.638;2023-04-01T02:11:22;11.45;;;3.60;;
78612;SDS011;67933;51.060;3.638;2023-04-01T02:19:01;8.35;;;3.63;;
78612;SDS011;67933;51.060;3.638;2023-04-01T02:21:32;8.45;;;4.00;;
78612;SDS011;67933;51.060;3.638;2023-04-01T02:23:59;12.27;;;4.15;;
78612;SDS011;67933;51.060;3.638;2023-04-01T02:26:28;10.60;;;3.92;;
78612;SDS011;67933;51.060;3.638;2023-04-01T02:28:54;10.32;;;4.40;;
78612;SDS011;67933;51.060;3.638;2023-04-01T02:31:22;13.82;;;4.03;;
78612;SDS011;67933;51.060;3.638;2023-04-01T02:33:48;11.13;;;4.03;;
78612;SDS011;67933;51.060;3.638;2023-04-01T02:36:15;14.50;;;4.72;;
78612;SDS011;67933;51.060;3.638;2023-04-01T02:38:41;10.30;;;3.88;;
78612;SDS011;67933;51.060;3.638;2023-04-01T02:41:09;10.05;;;4.18;;
78612;SDS011;67933;51.060;3.638;2023-04-01T02:43:35;9.20;;;3.70;;
78612;SDS011;67933;51.060;3.638;2023-04-01T02:46:00;12.63;;;3.95;;
78612;SDS011;67933;51.060;3.638;2023-04-01T02:48:26;10.43;;;3.42;;
78612;SDS011;67933;51.060;3.638;2023-04-01T02:50:52;10.63;;;4.15;;
78612;SDS011;67933;51.060;3.638;2023-04-01T02:53:17;9.98;;;3.80;;
78612;SDS011;67933;51.060;3.638;2023-04-01T02:55:43;8.95;;;3.78;;
78612;SDS011;67933;51.060;3.638;2023-04-01T02:58:09;13.60;;;4.75;;
78612;SDS011;67933;51.060;3.638;2023-04-01T03:00:35;11.95;;;5.22;;
78612;SDS011;67933;51.060;3.638;2023-04-01T03:03:00;19.00;;;4.10;;
78612;SDS011;67933;51.060;3.638;2023-04-01T03:05:27;9.13;;;3.80;;
78612;SDS011;67933;51.060;3.638;2023-04-01T03:07:52;10.30;;;4.60;;
78612;SDS011;67933;51.060;3.638;2023-04-01T03:10:18;8.05;;;4.00;;
78612;SDS011;67933;51.060;3.638;2023-04-01T03:12:43;12.52;;;4.03;;
78612;SDS011;67933;51.060;3.638;2023-04-01T03:15:12;9.45;;;3.80;;
78612;SDS011;67933;51.060;3.638;2023-04-01T03:17:39;8.70;;;3.70;;
78612;SDS011;67933;51.060;3.638;2023-04-01T03:20:06;9.70;;;3.83;;
78612;SDS011;67933;51.060;3.638;2023-04-01T03:22:33;11.30;;;3.58;;
78612;SDS011;67933;51.060;3.638;2023-04-01T03:24:59;12.13;;;3.65;;
78612;SDS011;67933;51.060;3.638;2023-04-01T03:27:24;4.82;;;2.72;;
78612;SDS011;67933;51.060;3.638;2023-04-01T03:29:50;6.82;;;2.97;;
78612;SDS011;67933;51.060;3.638;2023-04-01T03:32:15;5.43;;;2.60;;
78612;SDS011;67933;51.060;3.638;2023-04-01T03:34:40;7.32;;;3.00;;
78612;SDS011;67933;51.060;3.638;2023-04-01T03:37:06;6.75;;;2.90;;
78612;SDS011;67933;51.060;3.638;2023-04-01T03:39:31;8.63;;;2.83;;
78612;SDS011;67933;51.060;3.638;2023-04-01T03:41:57;5.43;;;2.78;;
78612;SDS011;67933;51.060;3.638;2023-04-01T03:44:22;10.70;;;3.67;;
78612;SDS011;67933;51.060;3.638;2023-04-01T03:46:48;5.63;;;3.25;;
78612;SDS011;67933;51.060;3.638;2023-04-01T03:49:13;7.85;;;3.90;;
78612;SDS011;67933;51.060;3.638;2023-04-01T03:51:39;5.50;;;2.92;;
78612;SDS011;67933;51.060;3.638;2023-04-01T03:54:06;5.90;;;2.63;;
78612;SDS011;67933;51.060;3.638;2023-04-01T03:56:31;4.88;;;2.45;;
78612;SDS011;67933;51.060;3.638;2023-04-01T03:58:57;5.60;;;2.30;;
78612;SDS011;67933;51.060;3.638;2023-04-01T04:01:23;5.40;;;2.42;;
78612;SDS011;67933;51.060;3.638;2023-04-01T04:03:48;4.63;;;2.78;;
78612;SDS011;67933;51.060;3.638;2023-04-01T04:06:15;4.45;;;2.60;;
78612;SDS011;67933;51.060;3.638;2023-04-01T04:08:42;8.93;;;2.92;;
78612;SDS011;67933;51.060;3.638;2023-04-01T04:11:09;5.47;;;2.85;;
78612;SDS011;67933;51.060;3.638;2023-04-01T04:13:34;5.38;;;2.28;;
78612;SDS011;67933;51.060;3.638;2023-04-01T04:16:01;4.65;;;2.33;;
78612;SDS011;67933;51.060;3.638;2023-04-01T04:18:27;3.95;;;2.47;;
78612;SDS011;67933;51.060;3.638;2023-04-01T04:20:53;6.78;;;2.60;;
78612;SDS011;67933;51.060;3.638;2023-04-01T04:23:19;8.02;;;2.50;;
78612;SDS011;67933;51.060;3.638;2023-04-01T04:25:57;5.88;;;2.80;;
78612;SDS011;67933;51.060;3.638;2023-04-01T04:28:27;9.10;;;3.72;;
78612;SDS011;67933;51.060;3.638;2023-04-01T04:30:53;10.27;;;4.38;;
78612;SDS011;67933;51.060;3.638;2023-04-01T04:33:19;9.70;;;4.25;;
78612;SDS011;67933;51.060;3.638;2023-04-01T04:35:44;10.77;;;5.00;;
78612;SDS011;67933;51.060;3.638;2023-04-01T04:38:10;13.95;;;5.20;;
78612;SDS011;67933;51.060;3.638;2023-04-01T04:40:36;9.07;;;5.00;;
78612;SDS011;67933;51.060;3.638;2023-04-01T04:43:02;14.38;;;6.25;;
78612;SDS011;67933;51.060;3.638;2023-04-01T04:45:28;13.88;;;5.38;;
78612;SDS011;67933;51.060;3.638;2023-04-01T04:47:53;12.48;;;4.22;;
78612;SDS011;67933;51.060;3.638;2023-04-01T04:50:19;9.73;;;4.65;;
78612;SDS011;67933;51.060;3.638;2023-04-01T04:52:45;10.48;;;4.55;;
78612;SDS011;67933;51.060;3.638;2023-04-01T04:55:10;11.35;;;3.72;;
78612;SDS011;67933;51.060;3.638;2023-04-01T04:57:35;10.80;;;4.80;;
78612;SDS011;67933;51.060;3.638;2023-04-01T05:00:01;9.18;;;4.22;;
78612;SDS011;67933;51.060;3.638;2023-04-01T05:02:26;10.40;;;4.80;;
78612;SDS011;67933;51.060;3.638;2023-04-01T05:04:52;10.52;;;4.05;;
78612;SDS011;67933;51.060;3.638;2023-04-01T05:07:17;11.63;;;3.92;;
78612;SDS011;67933;51.060;3.638;2023-04-01T05:09:43;11.05;;;4.15;;
78612;SDS011;67933;51.060;3.638;2023-04-01T05:12:10;8.55;;;3.67;;
78612;SDS011;67933;51.060;3.638;2023-04-01T05:14:37;8.02;;;3.75;;
78612;SDS011;67933;51.060;3.638;2023-04-01T05:17:03;8.38;;;4.03;;
78612;SDS011;67933;51.060;3.638;2023-04-01T05:19:28;10.40;;;4.40;;
78612;SDS011;67933;51.060;3.638;2023-04-01T05:21:54;9.30;;;4.15;;
78612;SDS011;67933;51.060;3.638;2023-04-01T05:24:19;11.88;;;4.57;;
78612;SDS011;67933;51.060;3.638;2023-04-01T05:26:45;10.77;;;4.95;;
78612;SDS011;67933;51.060;3.638;2023-04-01T05:29:10;11.90;;;4.57;;
78612;SDS011;67933;51.060;3.638;2023-04-01T05:31:35;10.05;;;4.40;;
78612;SDS011;67933;51.060;3.638;2023-04-01T05:34:01;9.13;;;4.80;;
78612;SDS011;67933;51.060;3.638;2023-04-01T05:36:26;11.60;;;4.78;;
78612;SDS011;67933;51.060;3.638;2023-04-01T05:38:54;11.95;;;4.72;;
78612;SDS011;67933;51.060;3.638;2023-04-01T05:41:20;10.25;;;4.82;;
78612;SDS011;67933;51.060;3.638;2023-04-01T05:43:45;10.45;;;3.70;;
78612;SDS011;67933;51.060;3.638;2023-04-01T05:46:11;10.30;;;5.43;;
78612;SDS011;67933;51.060;3.638;2023-04-01T05:48:36;9.00;;;4.18;;
78612;SDS011;67933;51.060;3.638;2023-04-01T05:51:02;9.15;;;4.00;;
78612;SDS011;67933;51.060;3.638;2023-04-01T05:53:28;8.10;;;3.95;;
78612;SDS011;67933;51.060;3.638;2023-04-01T05:55:53;5.60;;;3.00;;
78612;SDS011;67933;51.060;3.638;2023-04-01T05:58:18;10.30;;;4.35;;
78612;SDS011;67933;51.060;3.638;2023-04-01T06:00:44;6.90;;;3.00;;
78612;SDS011;67933;51.060;3.638;2023-04-01T06:03:09;5.47;;;2.40;;
78612;SDS011;67933;51.060;3.638;2023-04-01T06:05:39;3.47;;;2.38;;
78612;SDS011;67933;51.060;3.638;2023-04-01T06:08:16;3.50;;;2.15;;
78612;SDS011;67933;51.060;3.638;2023-04-01T06:16:44;4.40;;;1.92;;
78612;SDS011;67933;51.060;3.638;2023-04-01T06:19:36;4.28;;;2.22;;
78612;SDS011;67933;51.060;3.638;2023-04-01T06:33:46;2.97;;;1.80;;
78612;SDS011;67933;51.060;3.638;2023-04-01T06:39:46;2.63;;;1.52;;
78612;SDS011;67933;51.060;3.638;2023-04-01T06:45:02;1.95;;;1.50;;
78612;SDS011;67933;51.060;3.638;2023-04-01T06:53:29;3.45;;;1.55;;
78612;SDS011;67933;51.060;3.638;2023-04-01T06:56:04;2.88;;;1.50;;
78612;SDS011;67933;51.060;3.638;2023-04-01T06:58:34;2.25;;;1.65;;
78612;SDS011;67933;51.060;3.638;2023-04-01T07:01:10;2.13;;;1.35;;
78612;SDS011;67933;51.060;3.638;2023-04-01T07:03:43;2.40;;;1.30;;
78612;SDS011;67933;51.060;3.638;2023-04-01T07:06:23;2.35;;;1.13;;
78612;SDS011;67933;51.060;3.638;2023-04-01T07:09:11;1.30;;;0.65;;
78612;SDS011;67933;51.060;3.638;2023-04-01T07:11:41;2.88;;;0.80;;
78612;SDS011;67933;51.060;3.638;2023-04-01T07:16:39;2.22;;;0.80;;
78612;SDS011;67933;51.060;3.638;2023-04-01T07:21:50;2.00;;;1.17;;
78612;SDS011;67933;51.060;3.638;2023-04-01T07:24:32;2.25;;;1.20;;
78612;SDS011;67933;51.060;3.638;2023-04-01T07:27:00;4.28;;;1.42;;
78612;SDS011;67933;51.060;3.638;2023-04-01T07:29:25;1.70;;;1.30;;
78612;SDS011;67933;51.060;3.638;2023-04-01T07:34:42;2.53;;;1.50;;
78612;SDS011;67933;51.060;3.638;2023-04-01T07:37:17;2.63;;;1.40;;
78612;SDS011;67933;51.060;3.638;2023-04-01T07:43:12;2.85;;;1.75;;
78612;SDS011;67933;51.060;3.638;2023-04-01T07:51:02;2.58;;;1.67;;
78612;SDS011;67933;51.060;3.638;2023-04-01T07:53:36;2.60;;;1.50;;
78612;SDS011;67933;51.060;3.638;2023-04-01T07:56:22;1.80;;;1.48;;
78612;SDS011;67933;51.060;3.638;2023-04-01T08:09:50;4.85;;;1.80;;
78612;SDS011;67933;51.060;3.638;2023-04-01T08:12:25;2.60;;;1.80;;
78612;SDS011;67933;51.060;3.638;2023-04-01T08:20:50;4.80;;;1.80;;
78612;SDS011;67933;51.060;3.638;2023-04-01T08:23:27;3.78;;;1.92;;
78612;SDS011;67933;51.060;3.638;2023-04-01T08:31:37;5.75;;;2.30;;
78612;SDS011;67933;51.060;3.638;2023-04-01T08:34:04;4.82;;;2.03;;
78612;SDS011;67933;51.060;3.638;2023-04-01T08:36:45;4.45;;;2.03;;
78612;SDS011;67933;51.060;3.638;2023-04-01T08:39:20;5.80;;;2.10;;
78612;SDS011;67933;51.060;3.638;2023-04-01T09:04:53;3.00;;;1.48;;
78612;SDS011;67933;51.060;3.638;2023-04-01T09:13:25;2.92;;;1.70;;
78612;SDS011;67933;51.060;3.638;2023-04-01T09:21:24;2.45;;;1.88;;
78612;SDS011;67933;51.060;3.638;2023-04-01T09:38:23;2.90;;;1.23;;
78612;SDS011;67933;51.060;3.638;2023-04-01T09:46:19;2.97;;;1.30;;
78612;SDS011;67933;51.060;3.638;2023-04-01T10:11:30;2.13;;;1.20;;
78612;SDS011;67933;51.060;3.638;2023-04-01T10:22:39;2.58;;;1.48;;
78612;SDS011;67933;51.060;3.638;2023-04-01T10:25:18;3.65;;;1.85;;
78612;SDS011;67933;51.060;3.638;2023-04-01T10:27:59;3.42;;;1.48;;
78612;SDS011;67933;51.060;3.638;2023-04-01T10:33:38;4.18;;;1.30;;
78612;SDS011;67933;51.060;3.638;2023-04-01T10:48:18;1.10;;;1.00;;
78612;SDS011;67933;51.060;3.638;2023-04-01T10:50:53;1.20;;;0.90;;
78612;SDS011;67933;51.060;3.638;2023-04-01T10:53:58;1.13;;;0.93;;
78612;SDS011;67933;51.060;3.638;2023-04-01T10:56:40;1.70;;;0.95;;
78612;SDS011;67933;51.060;3.638;2023-04-01T11:13:52;1.52;;;1.15;;
78612;SDS011;67933;51.060;3.638;2023-04-01T11:22:20;2.08;;;0.90;;
78612;SDS011;67933;51.060;3.638;2023-04-01T11:28:03;1.70;;;0.70;;
78612;SDS011;67933;51.060;3.638;2023-04-01T11:31:47;1.00;;;0.90;;
78612;SDS011;67933;51.060;3.638;2023-04-01T11:36:38;3.00;;;1.20;;
78612;SDS011;67933;51.060;3.638;2023-04-01T11:42:20;3.30;;;1.10;;
78612;SDS011;67933;51.060;3.638;2023-04-01T11:45:15;3.10;;;1.05;;
78612;SDS011;67933;51.060;3.638;2023-04-01T11:53:45;6.03;;;2.00;;
78612;SDS011;67933;51.060;3.638;2023-04-01T11:56:21;4.57;;;1.85;;
78612;SDS011;67933;51.060;3.638;2023-04-01T12:01:59;2.58;;;1.75;;
78612;SDS011;67933;51.060;3.638;2023-04-01T12:21:38;8.10;;;2.10;;
78612;SDS011;67933;51.060;3.638;2023-04-01T12:24:25;3.22;;;1.42;;
78612;SDS011;67933;51.060;3.638;2023-04-01T12:52:07;14.75;;;7.10;;
78612;SDS011;67933;51.060;3.638;2023-04-01T13:11:18;3.83;;;2.45;;
78612;SDS011;67933;51.060;3.638;2023-04-01T13:19:49;5.40;;;2.00;;
78612;SDS011;67933;51.060;3.638;2023-04-01T13:25:19;1.83;;;1.17;;
78612;SDS011;67933;51.060;3.638;2023-04-01T13:28:18;1.73;;;0.85;;
78612;SDS011;67933;51.060;3.638;2023-04-01T13:33:47;3.05;;;0.98;;
78612;SDS011;67933;51.060;3.638;2023-04-01T13:55:55;2.63;;;1.00;;
78612;SDS011;67933;51.060;3.638;2023-04-01T14:01:23;9.13;;;4.05;;
78612;SDS011;67933;51.060;3.638;2023-04-01T14:09:59;1.75;;;0.90;;
78612;SDS011;67933;51.060;3.638;2023-04-01T14:15:22;1.73;;;1.10;;
78612;SDS011;67933;51.060;3.638;2023-04-01T14:26:35;2.40;;;1.13;;
78612;SDS011;67933;51.060;3.638;2023-04-01T14:45:59;2.35;;;1.10;;
78612;SDS011;67933;51.060;3.638;2023-04-01T14:51:49;2.47;;;0.93;;
78612;SDS011;67933;51.060;3.638;2023-04-01T14:54:18;1.90;;;0.90;;
78612;SDS011;67933;51.060;3.638;2023-04-01T14:56:51;2.15;;;1.45;;
78612;SDS011;67933;51.060;3.638;2023-04-01T14:59:47;2.90;;;1.55;;
78612;SDS011;67933;51.060;3.638;2023-04-01T15:36:45;3.25;;;1.60;;
78612;SDS011;67933;51.060;3.638;2023-04-01T15:39:17;3.20;;;1.40;;
78612;SDS011;67933;51.060;3.638;2023-04-01T15:46:55;2.88;;;1.00;;
78612;SDS011;67933;51.060;3.638;2023-04-01T16:19:53;3.85;;;1.50;;
78612;SDS011;67933;51.060;3.638;2023-04-01T16:30:43;3.53;;;2.20;;
78612;SDS011;67933;51.060;3.638;2023-04-01T16:41:42;2.72;;;1.50;;
78612;SDS011;67933;51.060;3.638;2023-04-01T16:44:31;4.65;;;2.35;;
78612;SDS011;67933;51.060;3.638;2023-04-01T16:47:15;3.95;;;2.92;;
78612;SDS011;67933;51.060;3.638;2023-04-01T16:49:53;7.60;;;2.70;;
78612;SDS011;67933;51.060;3.638;2023-04-01T16:52:57;4.05;;;2.00;;
78612;SDS011;67933;51.060;3.638;2023-04-01T16:55:34;5.60;;;2.35;;
78612;SDS011;67933;51.060;3.638;2023-04-01T16:58:23;4.40;;;2.30;;
78612;SDS011;67933;51.060;3.638;2023-04-01T17:00:58;5.68;;;2.58;;
78612;SDS011;67933;51.060;3.638;2023-04-01T17:03:32;4.20;;;2.72;;
78612;SDS011;67933;51.060;3.638;2023-04-01T17:11:27;4.78;;;2.72;;
78612;SDS011;67933;51.060;3.638;2023-04-01T17:19:29;3.45;;;2.22;;
78612;SDS011;67933;51.060;3.638;2023-04-01T17:22:07;2.35;;;2.03;;
78612;SDS011;67933;51.060;3.638;2023-04-01T17:43:55;6.25;;;3.72;;
78612;SDS011;67933;51.060;3.638;2023-04-01T17:46:36;7.97;;;3.13;;
78612;SDS011;67933;51.060;3.638;2023-04-01T17:54:41;6.97;;;3.50;;
78612;SDS011;67933;51.060;3.638;2023-04-01T17:59:59;8.38;;;4.22;;
78612;SDS011;67933;51.060;3.638;2023-04-01T18:21:29;13.65;;;4.45;;
78612;SDS011;67933;51.060;3.638;2023-04-01T18:26:37;12.98;;;4.82;;
78612;SDS011;67933;51.060;3.638;2023-04-01T18:32:00;11.80;;;5.05;;
78612;SDS011;67933;51.060;3.638;2023-04-01T18:37:34;12.15;;;5.45;;
78612;SDS011;67933;51.060;3.638;2023-04-01T18:56:44;17.83;;;7.15;;
78612;SDS011;67933;51.060;3.638;2023-04-01T18:59:44;24.17;;;7.68;;
78612;SDS011;67933;51.060;3.638;2023-04-01T19:02:13;11.65;;;5.43;;
78612;SDS011;67933;51.060;3.638;2023-04-01T19:04:43;16.35;;;7.05;;
78612;SDS011;67933;51.060;3.638;2023-04-01T19:18:35;15.50;;;7.47;;
78612;SDS011;67933;51.060;3.638;2023-04-01T19:26:27;20.45;;;7.70;;
78612;SDS011;67933;51.060;3.638;2023-04-01T19:29:06;24.90;;;6.50;;
78612;SDS011;67933;51.060;3.638;2023-04-01T19:32:22;18.27;;;6.75;;
78612;SDS011;67933;51.060;3.638;2023-04-01T19:36:58;25.13;;;8.13;;
78612;SDS011;67933;51.060;3.638;2023-04-01T19:53:28;30.80;;;7.03;;
78612;SDS011;67933;51.060;3.638;2023-04-01T19:58:45;20.20;;;7.90;;
78612;SDS011;67933;51.060;3.638;2023-04-01T20:04:19;17.33;;;7.75;;
78612;SDS011;67933;51.060;3.638;2023-04-01T20:07:13;28.17;;;8.10;;
78612;SDS011;67933;51.060;3.638;2023-04-01T20:17:20;20.08;;;8.32;;
78612;SDS011;67933;51.060;3.638;2023-04-01T20:19:58;20.25;;;8.15;;
78612;SDS011;67933;51.060;3.638;2023-04-01T20:22:29;22.63;;;8.05;;
78612;SDS011;67933;51.060;3.638;2023-04-01T20:30:59;17.70;;;7.93;;
78612;SDS011;67933;51.060;3.638;2023-04-01T20:36:23;20.98;;;7.40;;
78612;SDS011;67933;51.060;3.638;2023-04-01T20:44:20;19.08;;;7.53;;
78612;SDS011;67933;51.060;3.638;2023-04-01T20:50:05;18.10;;;7.78;;
78612;SDS011;67933;51.060;3.638;2023-04-01T20:52:48;17.75;;;7.88;;
78612;SDS011;67933;51.060;3.638;2023-04-01T21:03:49;27.17;;;10.30;;
78612;SDS011;67933;51.060;3.638;2023-04-01T21:06:47;23.88;;;9.88;;
78612;SDS011;67933;51.060;3.638;2023-04-01T21:09:48;32.83;;;11.95;;
78612;SDS011;67933;51.060;3.638;2023-04-01T21:23:32;31.05;;;10.15;;
78612;SDS011;67933;51.060;3.638;2023-04-01T21:29:13;31.15;;;11.13;;
78612;SDS011;67933;51.060;3.638;2023-04-01T21:34:50;32.75;;;12.30;;
78612;SDS011;67933;51.060;3.638;2023-04-01T21:58:47;30.05;;;11.18;;
78612;SDS011;67933;51.060;3.638;2023-04-01T22:07:08;26.17;;;11.13;;
78612;SDS011;67933;51.060;3.638;2023-04-01T22:18:36;31.60;;;12.73;;
78612;SDS011;67933;51.060;3.638;2023-04-01T22:23:42;26.67;;;12.30;;
78612;SDS011;67933;51.060;3.638;2023-04-01T22:26:38;34.55;;;11.75;;
78612;SDS011;67933;51.060;3.638;2023-04-01T22:29:17;28.52;;;11.07;;
78612;SDS011;67933;51.060;3.638;2023-04-01T22:31:47;32.38;;;12.00;;
78612;SDS011;67933;51.060;3.638;2023-04-01T22:34:21;37.35;;;12.43;;
78612;SDS011;67933;51.060;3.638;2023-04-01T22:37:16;31.63;;;12.07;;
78612;SDS011;67933;51.060;3.638;2023-04-01T22:42:56;24.60;;;11.25;;
78612;SDS011;67933;51.060;3.638;2023-04-01T22:45:33;28.05;;;10.70;;
78612;SDS011;67933;51.060;3.638;2023-04-01T22:54:02;28.02;;;10.73;;
78612;SDS011;67933;51.060;3.638;2023-04-01T22:56:40;30.75;;;11.65;;
78612;SDS011;67933;51.060;3.638;2023-04-01T22:59:14;29.90;;;10.57;;
78612;SDS011;67933;51.060;3.638;2023-04-01T23:01:59;30.23;;;10.25;;
78612;SDS011;67933;51.060;3.638;2023-04-01T23:04:31;28.15;;;11.18;;
78612;SDS011;67933;51.060;3.638;2023-04-01T23:09:29;24.70;;;11.13;;
78612;SDS011;67933;51.060;3.638;2023-04-01T23:27:45;23.58;;;10.80;;
78612;SDS011;67933;51.060;3.638;2023-04-01T23:33:19;30.83;;;11.68;;
78612;SDS011;67933;51.060;3.638;2023-04-01T23:38:17;27.92;;;12.20;;
78612;SDS011;67933;51.060;3.638;2023-04-01T23:40:44;29.10;;;14.27;;
78612;SDS011;67933;51.060;3.638;2023-04-01T23:43:14;27.88;;;13.40;;
78612;SDS011;67933;51.060;3.638;2023-04-01T23:45:48;33.38;;;14.07;;
78612;SDS011;67933;51.060;3.638;2023-04-01T23:48:14;31.38;;;14.15;;
78612;SDS011;67933;51.060;3.638;2023-04-01T23:50:41;32.53;;;14.45;;
78612;SDS011;67933;51.060;3.638;2023-04-01T23:55:40;36.85;;;14.00;;
